Home PIREPS Pireps

Flight BEL3149

  • Submitted By: Carl Hermans
  • Departure Airport: Bruxelles National (EBBR)
  • Arrival Airport: Milano / Linate (LIML)
  • Aircraft: A319-111 (OO-SSA)
  • Flight Time: 01.40
  • Date Submitted: 04/02/2015
  • Status: Accepted
Flight Details
Gross Revenue:
(120 load / € 0.00 per unit
€ 0.00
Fuel Cost:
(4478 fuel used @ 5.1 / unit)
€ 22,837.80

Additional Log Information:

View Log

Aircraft Used in flight is Brussels Airlines_WL iFly 737-800 (wide screen)
14:57 Brakes are On
14:57 Recovered from Stall
14:57 Recovered from Overspeed
15:04 Brakes are Released
15:05 Brakes are On
15:05 Brakes are Released
15:11 Brakes are On
15:16 Brakes are Released
15:16 Brakes are On
15:16 Brakes are Released
15:17 You Took off @ 165 Knots and Flaps at Position 3
Departure Weather
EBBR 041350Z 01006KT 9999 -SHRA SCT026TCU 04/M01 Q1015 NOSIGrn
15:17 Landing Gear Up @ 177 Knots and 220 Feet
15:18 Below Fl100 you need to turn on the landing lights
15:18 Below FL100 you need to turn on the landing lights
16:06 You exceeded maximum bank angle
16:26 Paused
16:27 Unpaused
16:29 Landing Gear Down @ 170 Knots and 3000 Feet
16:33 You Landed @ 139 Knots and with -100 Vertical Speed
Arrival Weather
LIML 041520Z 04005KT 9999 OVC070 07/01 Q1004 NOSIGrn
16:38 Brakes are On
16:39 Brussels Bel-Track1.0.0.8

Route Map

Corporate About Us Our Team Vacancies Information Fleet Route Network Rules and Regulations Operations Flight Schedules Event Center Tours Partners IVAO Vatsim Acars dev FSCB

fb Users Online Belgium Marc Claus, Belgium ISMAIL SAIF , Belgium Chafik MATTAR,
3 Pilot(s) and 183 Guest(s) Online
CMS by phpVMS - Design by Crazycreatives.com - Copyright © 2018 - Brussels Airlines Virtual